Time;durP1;ratioP1;P1;durP2;ratioP2;P2;SDS_P1;SDS_P2;PMS_P1;PMS_P2;Temp;Humidity;BMP_temperature;BMP_pressure;BME280_temperature;BME280_humidity;BME280_pressure;Samples;Min_cycle;Max_cycle;Signal;HPM_P1;HPM_P2
2021/01/24 00:00:55;;;;;;;24.85;15.40;;;;;;;11.86;57.55;99902.84;1811744;79;21153;-76
2021/01/24 00:03:23;;;;;;;23.87;16.57;;;;;;;11.90;57.67;99894.77;1812537;79;21585;-76
2021/01/24 00:05:51;;;;;;;22.85;15.78;;;;;;;11.90;57.78;99887.55;1812742;79;21575;-79
2021/01/24 00:08:19;;;;;;;21.20;14.65;;;;;;;11.91;57.91;99887.03;1812754;79;21427;-76
2021/01/24 00:10:47;;;;;;;16.07;12.23;;;;;;;11.90;58.03;99890.73;1812130;79;21205;-76
2021/01/24 00:13:15;;;;;;;20.00;14.68;;;;;;;11.90;58.05;99888.05;1812277;79;21137;-76
2021/01/24 00:15:43;;;;;;;20.40;14.20;;;;;;;11.94;58.22;99883.97;1812386;79;21169;-78
2021/01/24 00:18:11;;;;;;;19.70;13.93;;;;;;;11.98;57.91;99887.95;1812427;78;21134;-76
2021/01/24 00:20:38;;;;;;;21.27;14.55;;;;;;;12.01;58.08;99882.23;1812254;79;21211;-77
2021/01/24 00:23:06;;;;;;;16.70;11.33;;;;;;;12.07;57.78;99880.67;1784056;79;21145;-77
2021/01/24 00:25:34;;;;;;;16.25;11.90;;;;;;;12.09;57.82;99881.34;1812758;79;21142;-76
2021/01/24 00:28:04;;;;;;;19.92;13.58;;;;;;;12.11;57.92;99876.61;1812769;79;21180;-79
2021/01/24 00:30:32;;;;;;;18.62;11.60;;;;;;;12.14;57.63;99870.38;1812491;79;21650;-78
2021/01/24 00:32:59;;;;;;;16.37;11.10;;;;;;;12.14;56.72;99866.34;1812734;79;21639;-77
2021/01/24 00:35:27;;;;;;;20.15;13.60;;;;;;;12.13;56.10;99868.71;1812397;79;21204;-76
2021/01/24 00:37:55;;;;;;;18.00;12.85;;;;;;;12.08;56.69;99863.06;1783951;79;21146;-76
2021/01/24 00:40:22;;;;;;;12.18;9.28;;;;;;;12.05;57.18;99854.02;1812667;79;21146;-76
2021/01/24 00:42:50;;;;;;;19.20;13.43;;;;;;;12.07;57.79;99854.66;1798529;79;21499;-79
2021/01/24 00:45:19;;;;;;;20.40;13.40;;;;;;;12.03;57.91;99853.34;1784155;80;21266;-77
2021/01/24 00:47:46;;;;;;;15.90;12.43;;;;;;;12.06;58.10;99854.84;1812527;79;23009;-77
2021/01/24 00:50:14;;;;;;;15.80;10.82;;;;;;;12.09;58.22;99849.95;1812573;79;21130;-77
2021/01/24 00:52:42;;;;;;;11.20;8.28;;;;;;;12.11;58.13;99851.11;1812196;79;21149;-78
2021/01/24 00:55:11;;;;;;;17.77;12.15;;;;;;;12.12;58.24;99850.91;1783628;79;21185;-76
2021/01/24 00:57:39;;;;;;;16.25;11.43;;;;;;;12.12;58.37;99849.57;1812250;79;21208;-78
2021/01/24 01:00:09;;;;;;;17.95;12.50;;;;;;;12.15;58.45;99849.72;1812053;79;21185;-77
2021/01/24 01:02:38;;;;;;;19.77;12.60;;;;;;;12.15;58.48;99845.19;1812591;79;21161;-77
2021/01/24 01:05:07;;;;;;;16.00;12.10;;;;;;;12.16;58.44;99848.70;1765774;79;21153;-77
2021/01/24 01:07:35;;;;;;;18.73;13.18;;;;;;;12.19;58.63;99846.48;1776615;80;21475;-79
2021/01/24 01:10:04;;;;;;;18.62;12.78;;;;;;;12.14;58.82;99842.19;1776689;80;21373;-77
2021/01/24 01:12:33;;;;;;;16.67;9.05;;;;;;;12.12;58.96;99840.17;1776501;80;21169;-77
2021/01/24 01:15:01;;;;;;;17.17;11.20;;;;;;;12.12;59.35;99840.17;1776583;80;21337;-78
2021/01/24 01:17:29;;;;;;;21.35;13.18;;;;;;;12.05;59.47;99827.69;1776624;80;21153;-77
2021/01/24 01:19:58;;;;;;;23.15;13.68;;;;;;;12.04;59.50;99827.37;1776747;80;21558;-79
2021/01/24 01:22:26;;;;;;;22.62;13.35;;;;;;;12.06;59.66;99824.81;1776722;80;21367;-78
2021/01/24 01:24:55;;;;;;;17.23;11.55;;;;;;;12.08;59.73;99829.98;1776586;80;21153;-78
2021/01/24 01:27:23;;;;;;;17.95;12.35;;;;;;;12.05;59.70;99835.23;1776646;80;21117;-78
2021/01/24 01:29:50;;;;;;;14.35;8.63;;;;;;;12.02;59.89;99836.09;1776581;80;21277;-78
2021/01/24 01:32:18;;;;;;;21.95;13.85;;;;;;;12.00;60.04;99839.48;1776789;80;21566;-78
2021/01/24 01:34:46;;;;;;;20.43;13.58;;;;;;;11.96;59.99;99838.17;1776536;80;22577;-76
2021/01/24 01:37:14;;;;;;;17.82;11.60;;;;;;;11.96;59.90;99845.72;1776630;80;21079;-77
2021/01/24 01:39:45;;;;;;;18.05;11.35;;;;;;;12.00;59.83;99847.03;1776609;80;21150;-78
2021/01/24 01:42:16;;;;;;;21.57;13.83;;;;;;;12.00;59.76;99842.17;1777003;80;21125;-78
2021/01/24 01:44:44;;;;;;;21.82;11.85;;;;;;;11.96;59.81;99844.38;1776624;80;21756;-76
2021/01/24 01:47:15;;;;;;;14.65;9.85;;;;;;;11.96;59.76;99845.72;1776549;80;21365;-77
2021/01/24 01:49:43;;;;;;;16.77;10.63;;;;;;;11.93;60.07;99848.24;1775694;80;21193;-77
2021/01/24 01:52:11;;;;;;;20.62;12.03;;;;;;;11.91;60.29;99846.27;1776554;80;21165;-77
2021/01/24 01:54:40;;;;;;;18.70;11.18;;;;;;;11.89;60.48;99849.62;1776563;80;21154;-76
2021/01/24 01:57:08;;;;;;;16.90;9.43;;;;;;;11.89;60.54;99850.13;1748974;80;21193;-76
2021/01/24 01:59:35;;;;;;;18.02;10.55;;;;;;;11.89;60.49;99850.13;1776737;80;21881;-76
2021/01/24 02:02:11;;;;;;;19.80;12.00;;;;;;;11.89;60.46;99844.77;1776477;80;21161;-77
2021/01/24 02:04:59;;;;;;;20.43;12.75;;;;;;;11.90;60.49;99834.37;1776484;80;21145;-75
2021/01/24 02:07:44;;;;;;;19.32;11.45;;;;;;;11.91;60.43;99836.04;1721831;80;21181;-75
2021/01/24 02:11:04;;;;;;;18.17;9.70;;;;;;;11.92;60.36;99834.51;1729433;80;21118;-78
2021/01/24 02:13:58;;;;;;;24.30;13.03;;;;;;;11.93;60.54;99832.66;1776444;80;21372;-76
2021/01/24 02:16:27;;;;;;;16.52;9.48;;;;;;;11.86;60.58;99836.59;1775958;80;21189;-77
2021/01/24 02:18:55;;;;;;;19.12;10.32;;;;;;;11.86;60.61;99839.78;1776555;80;21157;-79
2021/01/24 02:21:32;;;;;;;15.45;9.98;;;;;;;11.85;60.66;99844.28;1776430;80;21154;-77
2021/01/24 02:24:02;;;;;;;13.78;8.93;;;;;;;11.87;60.56;99845.47;1777014;80;21639;-76
2021/01/24 02:26:54;;;;;;;24.30;13.75;;;;;;;11.83;60.62;99847.67;1776590;80;21822;-78
2021/01/24 02:29:49;;;;;;;15.23;9.83;;;;;;;11.81;60.72;99846.14;1775996;80;21664;-77
2021/01/24 02:32:18;;;;;;;18.87;11.20;;;;;;;11.82;60.63;99841.98;1776279;80;21193;-75
2021/01/24 02:34:46;;;;;;;16.80;9.65;;;;;;;11.85;60.61;99841.60;1723889;80;21169;-76
2021/01/24 02:37:15;;;;;;;20.27;12.80;;;;;;;11.87;60.61;99840.93;1748032;80;21182;-75
2021/01/24 02:39:43;;;;;;;18.77;12.47;;;;;;;11.91;60.54;99836.88;1761567;80;21813;-76
2021/01/24 02:42:10;;;;;;;14.40;9.10;;;;;;;11.92;60.39;99839.05;1805663;79;21177;-76
2021/01/24 02:44:38;;;;;;;17.23;10.20;;;;;;;11.94;60.24;99828.95;1760512;81;21522;-77
2021/01/24 02:47:06;;;;;;;17.37;11.55;;;;;;;11.93;60.41;99834.00;1805679;79;21360;-77
2021/01/24 02:49:34;;;;;;;17.73;10.80;;;;;;;11.92;60.45;99833.16;1776538;79;21178;-76
2021/01/24 02:52:03;;;;;;;19.77;11.30;;;;;;;11.95;60.35;99836.00;1805471;79;21375;-76
2021/01/24 02:54:30;;;;;;;19.30;11.05;;;;;;;11.98;60.45;99835.63;1805448;79;21189;-74
2021/01/24 02:56:58;;;;;;;16.57;9.93;;;;;;;12.00;60.36;99829.58;1731062;81;21165;-76
2021/01/24 02:59:25;;;;;;;20.32;12.20;;;;;;;12.07;60.30;99835.03;1805698;79;21142;-77
2021/01/24 03:01:53;;;;;;;18.20;11.75;;;;;;;12.10;60.23;99824.77;1805491;79;21516;-76
2021/01/24 03:04:20;;;;;;;19.85;13.03;;;;;;;12.15;60.09;99826.91;1760383;81;21806;-78
2021/01/24 03:06:48;;;;;;;19.95;11.85;;;;;;;12.16;60.03;99820.00;1805319;79;21453;-77
2021/01/24 03:09:15;;;;;;;18.35;11.95;;;;;;;12.16;59.87;99827.22;1776645;79;21201;-78
2021/01/24 03:11:45;;;;;;;20.35;13.08;;;;;;;12.17;59.85;99833.77;1805312;79;21163;-77
2021/01/24 03:14:18;;;;;;;22.62;13.88;;;;;;;12.16;59.84;99829.91;1760563;81;21137;-77
2021/01/24 03:16:51;;;;;;;23.38;13.22;;;;;;;12.18;59.80;99827.38;1805696;79;21173;-77
2021/01/24 03:19:21;;;;;;;15.18;10.75;;;;;;;12.16;59.74;99825.87;1760520;81;21458;-77
2021/01/24 03:21:50;;;;;;;17.37;10.80;;;;;;;12.14;59.65;99811.31;1805712;79;21157;-77
2021/01/24 03:24:18;;;;;;;19.73;12.60;;;;;;;12.13;59.66;99804.80;1760722;81;21189;-78
2021/01/24 03:26:45;;;;;;;22.42;14.38;;;;;;;12.15;59.58;99802.74;1805572;79;21145;-75
2021/01/24 03:29:13;;;;;;;22.98;13.75;;;;;;;12.17;59.47;99794.84;1807073;79;21395;-75
2021/01/24 03:31:42;;;;;;;18.57;12.20;;;;;;;12.20;59.41;99798.98;1752420;79;21158;-75
2021/01/24 03:34:24;;;;;;;22.67;12.45;;;;;;;12.21;59.32;99798.48;1761705;81;21134;-77
2021/01/24 03:36:53;;;;;;;19.02;13.03;;;;;;;12.23;59.35;99800.48;1806255;79;21165;-77
2021/01/24 03:39:21;;;;;;;23.70;13.53;;;;;;;12.26;59.33;99814.35;1805783;79;21114;-77
2021/01/24 03:41:49;;;;;;;20.48;11.12;;;;;;;12.24;59.30;99804.83;1805512;79;21462;-77
2021/01/24 03:44:17;;;;;;;13.43;9.55;;;;;;;12.26;59.20;99802.27;1760481;81;21089;-77
2021/01/24 03:46:45;;;;;;;24.85;13.80;;;;;;;12.31;59.18;99805.73;1805395;79;21165;-75
2021/01/24 03:49:13;;;;;;;22.32;14.13;;;;;;;12.31;59.18;99807.08;1805620;79;21182;-76
2021/01/24 03:51:43;;;;;;;23.98;13.40;;;;;;;12.34;59.05;99804.04;1760550;81;21172;-76
2021/01/24 03:54:11;;;;;;;22.00;11.97;;;;;;;12.35;59.00;99808.38;1805744;79;22635;-78
2021/01/24 03:56:40;;;;;;;23.15;13.68;;;;;;;12.35;58.95;99803.02;1760740;81;21192;-77
2021/01/24 03:59:07;;;;;;;24.32;14.15;;;;;;;12.36;58.82;99797.47;1805561;79;21158;-76
2021/01/24 04:01:35;;;;;;;25.68;14.38;;;;;;;12.36;58.77;99800.67;1760543;81;21167;-77
2021/01/24 04:04:03;;;;;;;26.10;12.98;;;;;;;12.37;58.62;99794.28;1805665;79;21142;-76
2021/01/24 04:06:31;;;;;;;21.35;11.08;;;;;;;12.38;58.58;99790.05;1805513;79;22647;-77
2021/01/24 04:08:59;;;;;;;23.35;13.83;;;;;;;12.40;58.58;99793.91;1760679;81;21201;-78
2021/01/24 04:11:29;;;;;;;25.52;12.47;;;;;;;12.39;58.59;99789.54;1805587;79;21146;-76
2021/01/24 04:13:57;;;;;;;21.65;12.90;;;;;;;12.39;58.57;99794.91;1805578;79;21142;-77
2021/01/24 04:16:25;;;;;;;23.75;11.20;;;;;;;12.37;58.56;99793.77;1805487;79;21193;-78
2021/01/24 04:18:53;;;;;;;21.62;12.23;;;;;;;12.36;58.57;99791.27;1760710;81;21377;-76
2021/01/24 04:21:22;;;;;;;22.65;14.00;;;;;;;12.39;58.58;99788.20;1807111;77;21136;-77
2021/01/24 04:23:49;;;;;;;22.42;13.48;;;;;;;12.44;58.41;99793.84;1811587;79;21173;-79
2021/01/24 04:26:17;;;;;;;21.45;11.95;;;;;;;12.45;58.36;99790.16;1811467;79;21203;-78
2021/01/24 04:28:46;;;;;;;21.75;11.43;;;;;;;12.42;58.43;99790.52;1812168;79;21148;-78
2021/01/24 04:31:14;;;;;;;21.95;14.13;;;;;;;12.42;58.35;99791.86;1812022;79;21207;-76
2021/01/24 04:33:43;;;;;;;24.75;13.72;;;;;;;12.41;58.29;99790.20;1812587;79;21203;-76
2021/01/24 04:36:10;;;;;;;25.68;13.45;;;;;;;12.41;58.28;99787.52;1812825;78;21152;-76
2021/01/24 04:38:38;;;;;;;22.77;12.10;;;;;;;12.42;58.29;99791.86;1812555;79;21172;-76
2021/01/24 04:41:07;;;;;;;25.27;10.93;;;;;;;12.42;58.23;99790.52;1812993;79;22148;-77
2021/01/24 04:43:35;;;;;;;21.30;11.30;;;;;;;12.43;58.16;99793.52;1812411;79;21790;-79
2021/01/24 04:46:03;;;;;;;20.57;11.45;;;;;;;12.41;58.13;99795.06;1802703;79;21178;-75
2021/01/24 04:48:30;;;;;;;27.62;13.03;;;;;;;12.41;58.07;99795.58;1770859;80;21169;-77
2021/01/24 04:50:58;;;;;;;18.07;10.90;;;;;;;12.39;58.10;99789.54;1812404;79;21828;-76
2021/01/24 04:53:26;;;;;;;21.27;11.48;;;;;;;12.37;58.17;99787.56;1812006;79;21181;-77
2021/01/24 04:55:54;;;;;;;23.05;12.68;;;;;;;12.38;58.07;99793.25;1804992;79;21692;-77
2021/01/24 04:58:22;;;;;;;19.80;11.65;;;;;;;12.37;58.05;99792.94;1780186;80;21175;-76
2021/01/24 05:00:49;;;;;;;27.22;13.55;;;;;;;12.40;57.91;99795.26;1798152;79;21117;-76
2021/01/24 05:03:17;;;;;;;26.95;11.93;;;;;;;12.39;57.81;99789.54;1812672;79;21047;-76
2021/01/24 05:05:45;;;;;;;20.48;11.08;;;;;;;12.39;57.71;99794.91;1812561;79;21110;-76
2021/01/24 05:08:13;;;;;;;19.67;11.38;;;;;;;12.37;57.69;99790.25;1812681;79;21860;-77
2021/01/24 05:10:46;;;;;;;23.42;10.90;;;;;;;12.33;57.68;99788.95;1783851;79;21150;-77
2021/01/24 05:13:20;;;;;;;26.20;12.82;;;;;;;12.30;57.68;99787.97;1812914;79;21478;-77
2021/01/24 05:15:47;;;;;;;19.35;10.48;;;;;;;12.27;57.63;99784.34;1811564;79;21201;-76
2021/01/24 05:18:15;;;;;;;20.08;11.83;;;;;;;12.26;57.61;99799.58;1812698;79;21059;-77
2021/01/24 05:20:43;;;;;;;22.32;11.33;;;;;;;12.25;57.60;99790.38;1812633;79;22636;-76
2021/01/24 05:23:11;;;;;;;19.42;11.05;;;;;;;12.26;57.54;99790.70;1812644;79;21514;-77
2021/01/24 05:25:39;;;;;;;19.60;10.85;;;;;;;12.26;57.56;99790.70;1783251;79;21209;-76
2021/01/24 05:28:23;;;;;;;19.65;11.70;;;;;;;12.24;57.48;99785.52;1787963;78;21156;-78
2021/01/24 05:30:51;;;;;;;23.35;12.37;;;;;;;12.24;57.51;99795.44;1783577;79;22630;-75
2021/01/24 05:33:19;;;;;;;23.22;12.10;;;;;;;12.15;57.65;99792.00;1772451;80;21879;-76
2021/01/24 05:35:51;;;;;;;21.50;11.53;;;;;;;12.08;57.76;99791.92;1783611;80;21188;-75
2021/01/24 05:38:31;;;;;;;18.98;10.55;;;;;;;12.06;57.70;99786.40;1785718;80;21673;-76
2021/01/24 05:41:11;;;;;;;21.93;11.57;;;;;;;12.10;57.64;99803.30;1782825;80;21658;-78
2021/01/24 05:43:44;;;;;;;23.62;11.80;;;;;;;12.05;57.70;99786.08;1786502;80;21640;-79
2021/01/24 05:46:12;;;;;;;18.40;11.15;;;;;;;12.02;57.81;99804.72;1785235;80;21204;-78
2021/01/24 05:48:48;;;;;;;18.37;11.40;;;;;;;12.03;57.82;99805.55;1786640;78;21096;-77
2021/01/24 05:51:16;;;;;;;21.15;10.63;;;;;;;12.01;57.68;99798.20;1787685;80;21165;-76
2021/01/24 05:53:47;;;;;;;22.10;9.78;;;;;;;12.02;57.70;99802.03;1785687;80;21122;-76
2021/01/24 05:56:19;;;;;;;18.62;9.85;;;;;;;12.02;57.66;99808.74;1786003;80;21170;-76
2021/01/24 05:59:02;;;;;;;18.35;10.25;;;;;;;11.99;57.65;99813.16;1771490;80;21376;-76
2021/01/24 06:01:30;;;;;;;16.12;10.28;;;;;;;11.95;57.62;99810.51;1783776;80;21086;-76
2021/01/24 06:04:00;;;;;;;17.25;8.75;;;;;;;11.98;57.55;99792.67;1784778;80;21162;-77
2021/01/24 06:06:27;;;;;;;15.80;8.28;;;;;;;11.88;57.68;99795.63;1784523;80;21113;-75
2021/01/24 06:08:56;;;;;;;15.35;7.97;;;;;;;11.84;57.78;99801.03;1787057;80;21093;-76
2021/01/24 06:11:24;;;;;;;19.90;10.05;;;;;;;11.85;57.81;99800.52;1786732;80;21363;-77
2021/01/24 06:13:55;;;;;;;16.87;8.38;;;;;;;11.85;57.78;99795.98;1737132;80;21139;-78
2021/01/24 06:16:25;;;;;;;17.10;8.88;;;;;;;11.84;57.79;99792.16;1737545;80;21086;-77
2021/01/24 06:19:03;;;;;;;18.00;8.75;;;;;;;11.84;57.73;99787.62;1779080;80;21113;-77
2021/01/24 06:21:45;;;;;;;18.27;9.08;;;;;;;11.86;57.62;99798.19;1785637;80;21105;-76
2021/01/24 06:24:22;;;;;;;17.32;9.00;;;;;;;11.84;57.56;99796.17;1778919;80;21348;-76
2021/01/24 06:26:55;;;;;;;17.37;9.48;;;;;;;11.82;57.49;99794.17;1783098;80;21058;-77
2021/01/24 06:29:25;;;;;;;19.10;9.48;;;;;;;11.82;57.46;99790.14;1788110;80;21474;-77
2021/01/24 06:31:54;;;;;;;19.95;8.90;;;;;;;11.83;57.36;99788.64;1747000;80;21142;-77
2021/01/24 06:34:40;;;;;;;18.25;8.28;;;;;;;11.82;57.30;99784.77;1765119;80;21667;-78
2021/01/24 06:37:19;;;;;;;18.60;8.60;;;;;;;11.94;57.00;99786.00;1768749;80;22374;-77
2021/01/24 06:39:54;;;;;;;16.60;9.18;;;;;;;11.97;56.87;99789.67;1764679;80;21197;-77
2021/01/24 06:42:38;;;;;;;16.37;7.75;;;;;;;11.98;56.73;99783.28;1765171;80;21139;-77
2021/01/24 06:45:06;;;;;;;13.80;7.47;;;;;;;11.99;56.63;99790.34;1789093;80;21189;-78
2021/01/24 06:47:40;;;;;;;15.75;8.50;;;;;;;12.00;56.59;99796.03;1782006;80;21189;-75
2021/01/24 06:50:47;;;;;;;15.58;8.38;;;;;;;12.00;56.46;99799.22;1787632;80;21446;-75
2021/01/24 06:53:22;;;;;;;16.23;7.70;;;;;;;12.00;56.42;99793.86;1759702;80;21209;-76
2021/01/24 06:56:06;;;;;;;14.05;7.25;;;;;;;11.97;56.39;99791.02;1780715;80;21345;-75
2021/01/24 06:58:47;;;;;;;18.45;8.78;;;;;;;11.97;56.36;99789.67;1783825;80;21770;-78
2021/01/24 07:01:33;;;;;;;15.15;7.45;;;;;;;11.97;56.30;99784.31;1784261;80;21620;-76
2021/01/24 07:04:31;;;;;;;14.58;6.78;;;;;;;11.99;56.19;99791.69;1791878;79;21875;-77
2021/01/24 07:07:13;;;;;;;14.68;7.40;;;;;;;11.97;56.18;99789.67;1792289;80;21129;-77
2021/01/24 07:09:43;;;;;;;17.67;7.92;;;;;;;11.97;56.17;99797.73;1761270;81;21369;-75
2021/01/24 07:12:12;;;;;;;18.32;7.75;;;;;;;11.99;56.07;99797.53;1759931;80;21197;-77
2021/01/24 07:14:43;;;;;;;12.63;7.50;;;;;;;11.98;56.00;99798.55;1791915;80;21192;-78
2021/01/24 07:17:14;;;;;;;13.48;7.60;;;;;;;11.95;56.04;99801.11;1760919;81;21366;-77
2021/01/24 07:19:50;;;;;;;12.18;7.45;;;;;;;11.98;56.02;99799.90;1793005;80;21119;-77
2021/01/24 07:22:21;;;;;;;12.35;5.87;;;;;;;11.96;55.97;99801.95;1761393;81;21185;-78
2021/01/24 07:24:50;;;;;;;13.70;6.40;;;;;;;11.98;55.96;99792.67;1792779;80;21164;-77
2021/01/24 07:27:25;;;;;;;12.88;6.22;;;;;;;12.00;55.85;99795.20;1765600;80;21104;-74
2021/01/24 07:29:53;;;;;;;12.88;7.17;;;;;;;12.00;55.88;99797.37;1764883;80;21776;-78
2021/01/24 07:32:25;;;;;;;12.63;6.95;;;;;;;12.04;55.85;99794.65;1765666;80;21181;-79
2021/01/24 07:34:54;;;;;;;12.28;6.53;;;;;;;12.10;55.79;99799.27;1786222;79;21206;-78
2021/01/24 07:37:23;;;;;;;11.55;7.15;;;;;;;12.15;55.58;99803.58;1785939;80;21521;-77
2021/01/24 07:39:53;;;;;;;10.10;6.28;;;;;;;12.19;55.55;99796.82;1762167;80;21192;-78
2021/01/24 07:42:21;;;;;;;10.10;5.62;;;;;;;12.21;55.48;99801.99;1791145;77;21412;-77
2021/01/24 07:44:49;;;;;;;11.88;6.90;;;;;;;12.26;55.39;99805.47;1788848;79;21114;-77
2021/01/24 07:47:17;;;;;;;14.47;7.72;;;;;;;12.27;55.30;99797.25;1785981;79;21557;-79
2021/01/24 07:49:44;;;;;;;15.70;7.53;;;;;;;12.30;55.26;99792.83;1773647;80;21739;-77
2021/01/24 07:52:12;;;;;;;14.98;7.28;;;;;;;12.34;55.25;99794.64;1777999;80;21427;-77
2021/01/24 07:54:40;;;;;;;11.88;6.45;;;;;;;12.37;55.23;99792.94;1786959;80;22041;-76
2021/01/24 07:57:09;;;;;;;11.53;6.42;;;;;;;12.40;55.16;99800.63;1759488;80;21193;-77
2021/01/24 07:59:36;;;;;;;14.75;6.05;;;;;;;12.45;55.08;99788.81;1718150;80;21372;-77
2021/01/24 08:02:04;;;;;;;10.03;5.15;;;;;;;12.50;55.02;99789.59;1770220;80;21625;-77
2021/01/24 08:04:38;;;;;;;9.73;4.75;;;;;;;12.56;54.94;99794.20;1766814;80;21169;-81
2021/01/24 08:07:09;;;;;;;8.20;4.92;;;;;;;12.62;54.79;99780.84;1767329;80;22077;-80
2021/01/24 08:09:39;;;;;;;10.82;4.75;;;;;;;12.68;54.71;99785.48;1786943;80;21221;-78
2021/01/24 08:12:12;;;;;;;7.83;4.80;;;;;;;12.73;54.52;99784.09;1749195;80;21148;-75
2021/01/24 08:14:46;;;;;;;6.83;4.22;;;;;;;12.78;54.34;99793.77;1751729;80;21216;-77
2021/01/24 08:17:15;;;;;;;8.68;5.03;;;;;;;12.83;54.24;99784.62;1796947;77;21175;-75
2021/01/24 08:19:43;;;;;;;14.25;6.28;;;;;;;12.85;54.12;99788.80;1790300;77;21404;-78
2021/01/24 08:22:11;;;;;;;8.85;5.15;;;;;;;12.87;54.03;99790.77;1766060;80;21175;-78
2021/01/24 08:24:40;;;;;;;14.87;5.78;;;;;;;12.92;53.93;99787.00;1768983;80;21665;-77
2021/01/24 08:27:08;;;;;;;6.85;4.72;;;;;;;12.97;53.90;99790.46;1736650;80;21058;-77
2021/01/24 08:29:37;;;;;;;7.78;5.12;;;;;;;13.02;53.83;99788.03;1766402;80;21568;-75
2021/01/24 08:32:06;;;;;;;10.90;5.92;;;;;;;13.05;53.66;99782.28;1751063;80;21444;-78
2021/01/24 08:34:34;;;;;;;7.95;4.80;;;;;;;13.07;53.63;99776.19;1770869;80;21138;-77
2021/01/24 08:37:04;;;;;;;9.25;4.85;;;;;;;13.09;53.40;99770.13;1769794;80;21154;-77
2021/01/24 08:39:33;;;;;;;9.15;4.75;;;;;;;13.10;53.42;99776.33;1772710;80;21126;-77
2021/01/24 08:42:06;;;;;;;7.33;4.55;;;;;;;13.12;53.30;99767.03;1771358;80;21687;-78
2021/01/24 08:44:34;;;;;;;11.05;6.05;;;;;;;13.19;53.22;99778.70;1768201;80;21203;-78
2021/01/24 08:47:06;;;;;;;8.33;4.72;;;;;;;13.24;53.03;99770.09;1764734;80;21249;-76
2021/01/24 08:49:34;;;;;;;8.98;4.78;;;;;;;13.27;52.92;99762.16;1768776;80;21681;-76
2021/01/24 08:52:03;;;;;;;9.18;5.25;;;;;;;13.30;52.76;99767.14;1766609;80;21189;-79
2021/01/24 08:54:32;;;;;;;11.48;5.58;;;;;;;13.31;52.64;99762.10;1765660;80;21039;-77
2021/01/24 08:57:18;;;;;;;8.00;4.83;;;;;;;13.33;52.63;99758.69;1767639;80;21434;-77
2021/01/24 08:59:54;;;;;;;10.75;5.17;;;;;;;13.32;52.46;99755.17;1772270;80;21220;-75
2021/01/24 09:02:30;;;;;;;8.55;5.22;;;;;;;13.32;52.50;99753.00;1801978;77;21181;-78
2021/01/24 09:05:00;;;;;;;12.50;5.73;;;;;;;13.36;52.51;99743.52;1802187;77;21194;-79
2021/01/24 09:07:38;;;;;;;9.95;6.22;;;;;;;13.36;52.38;99740.31;1802094;79;21113;-78
2021/01/24 09:10:33;;;;;;;12.53;6.75;;;;;;;13.39;52.29;99767.32;1772275;80;21372;-77
2021/01/24 09:13:00;;;;;;;13.90;7.58;;;;;;;13.36;52.29;99744.87;1783093;80;21158;-78
2021/01/24 09:15:31;;;;;;;12.18;6.72;;;;;;;13.35;52.25;99742.69;1770087;80;21651;-78
2021/01/24 09:18:00;;;;;;;10.68;6.47;;;;;;;13.35;52.32;99740.48;1762334;80;21228;-78
2021/01/24 09:20:31;;;;;;;13.38;5.78;;;;;;;13.36;52.36;99732.77;1767093;80;21418;-77
2021/01/24 09:22:59;;;;;;;8.48;4.80;;;;;;;13.36;52.34;99744.35;1795850;78;21364;-76
2021/01/24 09:25:27;;;;;;;7.17;4.83;;;;;;;13.37;52.39;99743.83;1802730;79;21202;-79
2021/01/24 09:27:55;;;;;;;9.05;5.08;;;;;;;13.41;52.31;99745.11;1797300;79;21176;-77
2021/01/24 09:30:25;;;;;;;9.08;5.33;;;;;;;13.40;52.29;99744.80;1798765;79;21360;-79
2021/01/24 09:32:53;;;;;;;10.23;5.50;;;;;;;13.41;52.36;99749.15;1795065;79;22157;-77
2021/01/24 09:35:21;;;;;;;11.05;4.17;;;;;;;13.41;52.27;99742.42;1769953;80;21376;-77
2021/01/24 09:37:49;;;;;;;8.40;5.08;;;;;;;13.44;52.34;99744.70;1789251;78;21070;-75
2021/01/24 09:40:17;;;;;;;9.00;5.70;;;;;;;13.45;52.31;99747.22;1788854;78;21176;-77
2021/01/24 09:42:45;;;;;;;21.30;9.88;;;;;;;13.47;52.33;99731.39;1785107;80;21221;-77
2021/01/24 09:45:14;;;;;;;20.77;9.00;;;;;;;13.50;52.35;99733.19;1785587;80;21585;-77
2021/01/24 09:47:41;;;;;;;13.38;8.33;;;;;;;13.47;52.34;99721.45;1783356;78;22850;-76
2021/01/24 09:50:12;;;;;;;12.63;7.37;;;;;;;13.49;52.38;99727.49;1782765;79;21245;-76
2021/01/24 09:52:40;;;;;;;13.28;7.55;;;;;;;13.49;52.46;99732.88;1770110;80;21202;-79
2021/01/24 09:55:11;;;;;;;11.60;6.25;;;;;;;13.52;52.43;99703.39;1784527;80;21225;-78
2021/01/24 09:57:39;;;;;;;8.90;4.50;;;;;;;13.55;52.48;99715.11;1781412;80;21397;-78
2021/01/24 10:00:12;;;;;;;9.70;5.00;;;;;;;13.56;52.51;99721.63;1764103;80;21641;-76
2021/01/24 10:02:44;;;;;;;10.23;5.08;;;;;;;13.60;52.58;99699.20;1772413;80;21226;-76
2021/01/24 10:05:16;;;;;;;9.78;5.40;;;;;;;13.63;52.68;99702.86;1785520;80;21181;-77
2021/01/24 10:07:46;;;;;;;12.58;4.53;;;;;;;13.69;52.61;99698.86;1786642;80;21377;-76
2021/01/24 10:10:16;;;;;;;8.25;5.00;;;;;;;13.72;52.59;99693.61;1785258;78;21196;-77
2021/01/24 10:12:47;;;;;;;9.68;5.42;;;;;;;13.78;52.53;99681.21;1779666;80;21224;-79
2021/01/24 10:15:17;;;;;;;7.90;5.10;;;;;;;13.81;52.47;99683.00;1784630;80;21236;-77
2021/01/24 10:17:46;;;;;;;8.33;4.70;;;;;;;13.86;52.32;99672.98;1783592;80;21286;-78
2021/01/24 10:20:16;;;;;;;7.37;4.37;;;;;;;13.90;52.28;99670.22;1784783;80;21179;-79
2021/01/24 10:22:44;;;;;;;9.78;5.15;;;;;;;13.95;52.20;99670.45;1786362;80;21186;-77
2021/01/24 10:25:16;;;;;;;9.35;4.97;;;;;;;13.97;52.11;99665.68;1789154;78;21416;-75
2021/01/24 10:27:45;;;;;;;9.38;5.40;;;;;;;14.03;52.18;99686.93;1799373;79;21188;-77
2021/01/24 10:30:18;;;;;;;8.03;5.35;;;;;;;14.06;51.99;99661.78;1770806;80;21193;-77
2021/01/24 10:32:46;;;;;;;8.58;4.70;;;;;;;14.10;52.00;99667.09;1763761;79;21189;-79
2021/01/24 10:35:14;;;;;;;11.28;5.22;;;;;;;14.13;51.91;99663.18;1786713;78;21212;-76
2021/01/24 10:37:42;;;;;;;10.82;5.15;;;;;;;14.12;51.86;99669.58;1764009;79;22942;-77
2021/01/24 10:40:11;;;;;;;11.08;4.17;;;;;;;14.12;51.89;99674.44;1779188;79;21474;-78
2021/01/24 10:42:39;;;;;;;8.00;5.15;;;;;;;14.14;51.93;99658.09;1811084;79;21486;-79
2021/01/24 10:45:09;;;;;;;9.08;4.58;;;;;;;14.18;51.89;99661.54;1779102;79;21595;-79
2021/01/24 10:47:36;;;;;;;8.75;4.95;;;;;;;14.24;51.80;99659.06;1764867;80;21758;-77
2021/01/24 10:50:07;;;;;;;7.50;4.83;;;;;;;14.26;51.74;99659.69;1772101;79;23128;-78
2021/01/24 10:52:35;;;;;;;8.98;4.92;;;;;;;14.30;51.47;99669.02;1788426;79;21201;-80
2021/01/24 10:55:05;;;;;;;8.43;5.50;;;;;;;14.30;51.47;99653.69;1786074;80;21241;-81
2021/01/24 10:57:33;;;;;;;9.40;5.20;;;;;;;14.32;51.40;99661.07;1788386;80;21138;-76
2021/01/24 11:00:03;;;;;;;7.33;4.87;;;;;;;14.33;51.40;99674.02;1784320;78;21054;-79
2021/01/24 11:02:31;;;;;;;10.03;5.47;;;;;;;14.35;51.54;99656.64;1797790;79;21271;-79
2021/01/24 11:05:00;;;;;;;8.48;4.05;;;;;;;14.40;51.53;99649.30;1774978;80;21206;-80
2021/01/24 11:07:28;;;;;;;9.58;5.05;;;;;;;14.45;51.60;99648.99;1771714;80;21178;-81
2021/01/24 11:09:55;;;;;;;7.28;5.17;;;;;;;14.49;51.37;99657.54;1781118;80;21193;-75
2021/01/24 11:12:24;;;;;;;10.68;6.65;;;;;;;14.50;51.19;99635.46;1774237;80;21174;-75
2021/01/24 11:14:57;;;;;;;7.12;4.80;;;;;;;14.50;51.36;99632.25;1798722;79;21477;-74
2021/01/24 11:17:25;;;;;;;8.00;4.80;;;;;;;14.54;51.22;99626.77;1795266;79;21498;-81
2021/01/24 11:19:54;;;;;;;9.78;5.87;;;;;;;14.56;51.21;99619.29;1770505;80;21154;-79
2021/01/24 11:22:24;;;;;;;13.93;5.42;;;;;;;14.57;51.21;99616.90;1778444;79;21172;-75
2021/01/24 11:24:52;;;;;;;11.25;6.20;;;;;;;14.62;51.39;99630.59;1776869;79;21642;-79
2021/01/24 11:27:20;;;;;;;7.70;4.95;;;;;;;14.64;51.28;99629.89;1769994;80;21202;-77
2021/01/24 11:29:49;;;;;;;9.65;5.12;;;;;;;14.68;51.16;99635.19;1786433;80;21165;-75
2021/01/24 11:32:18;;;;;;;8.43;4.53;;;;;;;14.71;51.28;99626.66;1787482;80;21633;-78
2021/01/24 11:34:48;;;;;;;9.05;4.83;;;;;;;14.78;51.09;99632.60;1783417;80;21189;-78
2021/01/24 11:37:18;;;;;;;10.53;5.83;;;;;;;14.78;50.88;99628.56;1760083;80;21735;-75
2021/01/24 11:39:47;;;;;;;10.45;4.95;;;;;;;14.76;51.05;99616.64;1787045;80;21364;-77